Aurangabad Airport
VAAU : now visible

Airfield :











YOU CAN JOIN US ON...

 
LOGIN :

Register | Disclaimer

   EN    FR    IT 

 









Legend :    VFR   Marginal VFR   IFR   Intensive IFR   Very Intensive IFR
Visi :
Ceiling :
>= 8 km
>= 3000ft
5 to 8 km
1000 to 3000 ft
1500m to 5 km
500 to 1000 ft
800 to 1500m
200 to 500 ft
< 800m
< 200 ft
Symbols :   Thunderstorms  Fog  Heavy snow  Heavy precipitations  Wind > 20 kt






- Airport Elevation : 1911 ft
- IATA code : IXU


VAAU - Aurangabad

CURRENT METAR :
  • 051400Z 25003KT 6000 SCT020 BKN100 26/21 Q1006 NOSIG

EXPIRED METARs :
  • 051300Z 27003KT 6000 SCT020 BKN100 28/21 Q1005 NOSIG
  • 051200Z 25011KT 6000 SCT020 SCT025 BKN100 29/20 Q1005 NOSIG

TAF TAF VAAU
Valid from the 05 at 12:00 until the 05 at 21:00 UTC


051100Z 0512/0521 25006KT 4000 HZ FEW018 SCT025 BKN100
TEMPO 0512/0518 2000 SHRA RA SCT012 FEW025TCU BKN090
BECMG 0518/0520 VRB03KT 3000 -DZ HZ
VABF FIR / Asia



MET'MAP, your aeronautical weather chart ! - Copyright ORBIFLY December 2007 - Disclaimer

ORBIFLY MET'MAP TEAM :

Programming & Development : Alexandra Zaïnal
Concept & original design : Baudouin d'Aumeries
Assistance for programming : Marc-Olivier Méhu
Technical & hardware support : Manuel Goepfert

Contact : metmap@orbifly.com




SOURCES & CREDITS :

   NOAA       Earth
Advisory